Time;durP1;ratioP1;P1;durP2;ratioP2;P2;SDS_P1;SDS_P2;PMS_P1;PMS_P2;Temp;Humidity;BMP_temperature;BMP_pressure;BME280_temperature;BME280_humidity;BME280_pressure;Samples;Min_cycle;Max_cycle;Signal;HPM_P1;HPM_P2
2022/04/24 00:01:12;;;;;;;11.82;10.57;;;15.30;99.90;;;;;;5033915;28;20196;-79
2022/04/24 00:03:38;;;;;;;11.63;10.43;;;15.30;99.90;;;;;;5033596;28;20187;-88
2022/04/24 00:06:04;;;;;;;15.57;10.85;;;15.30;99.90;;;;;;5033284;28;20171;-90
2022/04/24 00:08:30;;;;;;;11.25;9.93;;;15.30;99.90;;;;;;5033522;28;20247;-85
2022/04/24 00:10:55;;;;;;;11.30;10.20;;;15.20;99.90;;;;;;5032156;28;20178;-85
2022/04/24 00:13:23;;;;;;;12.70;10.30;;;15.00;99.90;;;;;;5033858;28;20168;-84
2022/04/24 00:15:48;;;;;;;11.82;10.10;;;14.90;99.90;;;;;;5033059;28;20200;-77
2022/04/24 00:18:14;;;;;;;14.23;10.18;;;15.00;99.90;;;;;;5033117;28;20179;-78
2022/04/24 00:20:42;;;;;;;11.80;9.10;;;14.90;99.90;;;;;;5032957;28;20207;-79
2022/04/24 00:23:07;;;;;;;12.65;9.02;;;14.90;99.90;;;;;;5048264;28;20663;-79
2022/04/24 00:25:33;;;;;;;10.15;8.43;;;14.90;99.90;;;;;;5033011;28;20200;-79
2022/04/24 00:28:00;;;;;;;15.15;8.77;;;14.70;99.90;;;;;;5033208;28;20164;-86
2022/04/24 00:30:26;;;;;;;8.32;7.55;;;14.70;99.90;;;;;;5031676;28;20567;-79
2022/04/24 00:32:52;;;;;;;12.13;8.68;;;14.80;99.90;;;;;;5033017;28;20175;-81
2022/04/24 00:35:18;;;;;;;9.77;8.85;;;14.90;99.90;;;;;;5032781;28;20211;-85
2022/04/24 00:37:43;;;;;;;10.95;7.30;;;15.00;99.90;;;;;;5033471;28;20159;-88
2022/04/24 00:40:09;;;;;;;11.90;8.43;;;15.10;99.90;;;;;;5033355;28;20211;-79
2022/04/24 00:42:35;;;;;;;9.30;8.10;;;15.10;99.90;;;;;;5034593;28;20178;-84
2022/04/24 00:45:01;;;;;;;9.75;8.05;;;15.10;99.90;;;;;;5034599;28;20667;-89
2022/04/24 00:47:26;;;;;;;10.82;7.57;;;14.90;99.90;;;;;;5039283;28;20156;-76
2022/04/24 00:49:52;;;;;;;8.57;7.65;;;15.00;99.90;;;;;;5043295;28;20160;-75
2022/04/24 00:52:18;;;;;;;8.82;6.88;;;15.10;99.90;;;;;;5041800;28;20217;-81
2022/04/24 00:54:44;;;;;;;7.20;6.55;;;14.90;99.90;;;;;;5041471;28;20689;-75
2022/04/24 00:57:11;;;;;;;6.68;6.05;;;14.80;99.90;;;;;;5038984;28;20199;-86
2022/04/24 00:59:40;;;;;;;10.55;6.45;;;14.80;99.90;;;;;;5032870;28;20804;-79
2022/04/24 01:02:07;;;;;;;7.15;6.47;;;14.70;99.90;;;;;;5032986;28;20186;-83
2022/04/24 01:04:37;;;;;;;10.40;6.90;;;14.70;99.90;;;;;;5033202;28;20183;-92
2022/04/24 01:07:03;;;;;;;6.40;5.80;;;14.70;99.90;;;;;;5033095;28;20258;-90
2022/04/24 01:09:31;;;;;;;7.50;5.72;;;14.90;99.90;;;;;;5033052;28;20186;-86
2022/04/24 01:11:57;;;;;;;7.32;6.28;;;14.90;99.90;;;;;;5032926;28;20172;-89
2022/04/24 01:14:26;;;;;;;12.05;6.25;;;14.80;99.90;;;;;;5048048;28;20192;-85
2022/04/24 01:16:52;;;;;;;7.20;6.07;;;15.00;99.90;;;;;;5036944;28;20168;-90
2022/04/24 01:19:18;;;;;;;7.38;6.05;;;14.90;99.90;;;;;;5036971;28;20188;-82
2022/04/24 01:21:48;;;;;;;6.88;5.57;;;14.80;99.90;;;;;;5036713;28;20246;-84
2022/04/24 01:24:16;;;;;;;5.68;5.18;;;14.70;99.90;;;;;;5051771;28;20644;-83
2022/04/24 01:26:42;;;;;;;7.03;6.15;;;14.60;99.90;;;;;;5036958;28;20531;-88
2022/04/24 01:29:09;;;;;;;6.10;5.32;;;14.60;99.90;;;;;;5036687;28;20164;-79
2022/04/24 01:31:35;;;;;;;7.22;5.63;;;14.40;99.90;;;;;;5036443;28;20648;-81
2022/04/24 01:34:01;;;;;;;9.57;6.18;;;14.50;99.90;;;;;;5036531;28;20214;-86
2022/04/24 01:36:27;;;;;;;6.30;5.47;;;14.40;99.90;;;;;;5036440;28;20176;-89
2022/04/24 01:38:52;;;;;;;6.18;5.57;;;14.40;99.90;;;;;;5036415;28;20171;-84
2022/04/24 01:41:18;;;;;;;6.25;4.85;;;14.50;99.90;;;;;;5036385;28;20207;-86
2022/04/24 01:43:44;;;;;;;10.65;5.07;;;14.50;99.90;;;;;;5036320;28;20561;-76
2022/04/24 01:46:11;;;;;;;6.07;5.45;;;14.40;99.90;;;;;;5036276;28;20164;-83
2022/04/24 01:48:36;;;;;;;5.90;4.65;;;14.30;99.90;;;;;;5036390;28;20168;-87
2022/04/24 01:51:06;;;;;;;9.98;5.03;;;14.30;99.90;;;;;;5036465;28;20636;-82
2022/04/24 01:53:33;;;;;;;5.93;5.00;;;14.30;99.90;;;;;;5036074;28;20160;-88
2022/04/24 01:56:00;;;;;;;7.50;5.47;;;14.20;99.90;;;;;;5036000;28;20172;-84
2022/04/24 01:58:26;;;;;;;4.63;4.25;;;14.30;99.90;;;;;;5035729;28;20203;-89
2022/04/24 02:00:53;;;;;;;4.47;4.07;;;14.10;99.90;;;;;;5035876;28;20253;-80
2022/04/24 02:03:19;;;;;;;14.57;5.03;;;14.10;99.90;;;;;;5035959;28;20184;-83
2022/04/24 02:05:45;;;;;;;5.88;4.75;;;14.20;99.90;;;;;;5035837;28;20195;-78
2022/04/24 02:08:11;;;;;;;6.53;4.43;;;14.10;99.90;;;;;;5035202;28;20175;-85
2022/04/24 02:10:37;;;;;;;4.68;4.28;;;13.90;99.90;;;;;;5035684;28;20179;-83
2022/04/24 02:13:03;;;;;;;9.52;3.95;;;13.90;99.90;;;;;;5036564;28;20180;-85
2022/04/24 02:15:28;;;;;;;5.68;3.67;;;13.90;99.90;;;;;;5035836;28;20274;-81
2022/04/24 02:17:55;;;;;;;4.72;4.22;;;13.80;99.90;;;;;;5035955;28;20164;-88
2022/04/24 02:20:21;;;;;;;6.07;4.50;;;13.60;99.90;;;;;;5035715;28;20238;-78
2022/04/24 02:22:46;;;;;;;8.35;4.18;;;13.60;99.90;;;;;;5035865;28;20659;-81
2022/04/24 02:25:12;;;;;;;4.93;4.13;;;13.50;99.90;;;;;;5035680;28;20191;-82
2022/04/24 02:27:38;;;;;;;8.48;4.57;;;13.70;99.90;;;;;;5034618;28;20160;-86
2022/04/24 02:30:04;;;;;;;5.15;4.43;;;13.70;99.90;;;;;;5050925;28;20207;-87
2022/04/24 02:32:29;;;;;;;4.65;4.25;;;13.60;99.90;;;;;;5035567;28;20186;-87
2022/04/24 02:34:55;;;;;;;5.20;4.50;;;13.60;99.90;;;;;;5035103;28;20696;-80
2022/04/24 02:37:22;;;;;;;7.10;4.28;;;13.30;99.90;;;;;;5035203;28;20211;-87
2022/04/24 02:39:47;;;;;;;4.32;3.92;;;13.20;99.90;;;;;;5035021;28;20208;-90
2022/04/24 02:42:13;;;;;;;10.68;4.43;;;13.10;99.90;;;;;;5034945;28;20178;-88
2022/04/24 02:44:39;;;;;;;5.13;4.57;;;13.00;99.90;;;;;;5035075;28;20234;-83
2022/04/24 02:47:05;;;;;;;5.45;4.57;;;13.20;99.90;;;;;;5035190;28;20925;-81
2022/04/24 02:49:31;;;;;;;4.22;3.88;;;13.20;99.90;;;;;;5035156;28;20167;-80
2022/04/24 02:51:56;;;;;;;11.10;4.28;;;13.20;99.90;;;;;;5035145;28;20256;-83
2022/04/24 02:54:22;;;;;;;4.53;4.13;;;13.30;99.90;;;;;;5034765;28;20282;-85
2022/04/24 02:56:47;;;;;;;5.57;4.20;;;13.30;99.90;;;;;;5034614;28;20159;-86
2022/04/24 02:59:15;;;;;;;4.43;4.03;;;13.20;99.90;;;;;;5034913;28;20172;-82
2022/04/24 03:01:41;;;;;;;4.30;3.90;;;13.00;99.90;;;;;;5034935;28;20230;-82
2022/04/24 03:04:06;;;;;;;3.88;3.58;;;13.00;99.90;;;;;;5034739;28;20196;-82
2022/04/24 03:06:32;;;;;;;7.90;3.95;;;13.00;99.90;;;;;;5034872;28;20168;-81
2022/04/24 03:08:57;;;;;;;5.72;4.32;;;13.00;99.90;;;;;;5034774;28;20168;-85
2022/04/24 03:11:23;;;;;;;5.18;4.57;;;13.10;99.90;;;;;;5034484;28;20179;-82
2022/04/24 03:13:49;;;;;;;4.85;4.38;;;13.10;99.90;;;;;;5034279;28;20359;-87
2022/04/24 03:16:15;;;;;;;5.38;3.85;;;13.00;99.90;;;;;;5034276;28;20192;-80
2022/04/24 03:18:41;;;;;;;4.47;4.07;;;13.00;99.90;;;;;;5034580;28;20230;-85
2022/04/24 03:21:06;;;;;;;6.13;3.97;;;13.00;99.90;;;;;;5034214;28;20234;-89
2022/04/24 03:23:32;;;;;;;4.85;4.35;;;12.80;99.90;;;;;;5034504;28;20168;-91
2022/04/24 03:25:58;;;;;;;4.43;4.03;;;12.90;99.90;;;;;;5034222;28;20187;-80
2022/04/24 03:28:23;;;;;;;4.05;3.65;;;12.70;99.90;;;;;;5033972;28;20172;-80
2022/04/24 03:30:49;;;;;;;4.50;3.92;;;12.70;99.90;;;;;;5033879;28;20203;-87
2022/04/24 03:33:15;;;;;;;3.85;3.53;;;12.60;99.90;;;;;;5034089;28;20180;-89
2022/04/24 03:35:40;;;;;;;3.88;3.58;;;12.70;99.90;;;;;;5033793;28;20664;-87
2022/04/24 03:38:06;;;;;;;4.38;3.97;;;12.80;99.90;;;;;;5034166;28;20168;-78
2022/04/24 03:40:32;;;;;;;4.15;3.75;;;12.80;99.90;;;;;;5033972;28;20207;-81
2022/04/24 03:42:57;;;;;;;5.70;3.70;;;12.90;99.90;;;;;;5034320;28;20637;-86
2022/04/24 03:45:23;;;;;;;4.88;4.47;;;12.80;99.90;;;;;;5034114;28;20188;-76
2022/04/24 03:47:49;;;;;;;4.80;4.40;;;12.90;99.90;;;;;;5034051;28;20174;-81
2022/04/24 03:50:14;;;;;;;4.50;4.10;;;12.90;99.90;;;;;;5033880;28;20164;-87
2022/04/24 03:52:40;;;;;;;4.93;4.53;;;12.80;99.90;;;;;;5033774;28;20168;-84
2022/04/24 03:55:07;;;;;;;4.88;4.40;;;13.00;99.90;;;;;;5033689;28;20598;-84
2022/04/24 03:57:33;;;;;;;6.20;3.45;;;12.90;99.90;;;;;;5033921;28;20175;-84
2022/04/24 03:59:58;;;;;;;4.30;3.90;;;12.60;99.90;;;;;;5034068;28;20208;-80
2022/04/24 04:02:25;;;;;;;3.97;3.60;;;12.60;99.90;;;;;;5034296;28;20164;-81
2022/04/24 04:04:51;;;;;;;5.35;4.03;;;12.60;99.90;;;;;;5033970;28;20187;-83
2022/04/24 04:07:16;;;;;;;4.65;4.05;;;12.70;99.90;;;;;;5038366;28;20171;-75
2022/04/24 04:09:42;;;;;;;8.90;4.10;;;12.80;99.90;;;;;;5044587;28;20186;-76
2022/04/24 04:12:09;;;;;;;5.57;4.70;;;12.80;99.90;;;;;;5040903;28;20180;-86
2022/04/24 04:14:34;;;;;;;6.82;4.10;;;12.80;99.90;;;;;;5037849;28;20664;-86
2022/04/24 04:17:00;;;;;;;4.10;3.80;;;13.00;99.90;;;;;;5033900;28;20171;-78
2022/04/24 04:19:25;;;;;;;4.60;4.28;;;12.90;99.90;;;;;;5033682;28;20564;-84
2022/04/24 04:21:51;;;;;;;4.85;4.45;;;12.90;99.90;;;;;;5033817;28;20719;-86
2022/04/24 04:24:17;;;;;;;5.18;4.60;;;12.60;99.90;;;;;;5033036;28;20527;-81
2022/04/24 04:26:44;;;;;;;4.63;4.22;;;12.50;99.90;;;;;;5033129;28;20172;-81
2022/04/24 04:29:09;;;;;;;7.40;4.93;;;12.60;99.90;;;;;;5033424;28;20164;-81
2022/04/24 04:31:35;;;;;;;4.20;3.80;;;12.80;99.90;;;;;;5033667;28;20163;-75
2022/04/24 04:34:00;;;;;;;7.03;4.85;;;12.70;99.90;;;;;;5033227;28;20259;-81
2022/04/24 04:36:26;;;;;;;4.55;4.15;;;12.90;99.90;;;;;;5033027;28;20718;-76
2022/04/24 04:38:52;;;;;;;5.05;4.65;;;12.90;99.90;;;;;;5033435;28;20175;-86
2022/04/24 04:41:17;;;;;;;4.88;4.05;;;12.90;99.90;;;;;;5033552;28;20758;-89
2022/04/24 04:43:43;;;;;;;4.97;4.57;;;12.80;99.90;;;;;;5033522;28;20178;-84
2022/04/24 04:46:08;;;;;;;4.60;4.22;;;12.80;99.90;;;;;;5033281;28;20711;-81
2022/04/24 04:48:34;;;;;;;6.47;5.95;;;12.80;99.90;;;;;;5033204;28;20164;-82
2022/04/24 04:50:59;;;;;;;9.18;4.68;;;12.80;99.90;;;;;;5050238;28;20225;-88
2022/04/24 04:53:25;;;;;;;6.13;5.43;;;12.70;99.90;;;;;;5052616;28;20226;-85
2022/04/24 04:55:51;;;;;;;10.82;4.90;;;12.60;99.90;;;;;;5036633;28;20175;-81
2022/04/24 04:58:17;;;;;;;6.13;3.78;;;12.70;99.90;;;;;;5037282;28;20172;-83
2022/04/24 05:00:42;;;;;;;5.57;5.07;;;12.60;99.90;;;;;;5037016;28;20329;-89
2022/04/24 05:03:08;;;;;;;4.85;4.40;;;12.60;99.90;;;;;;5036828;28;20227;-89
2022/04/24 05:05:34;;;;;;;4.30;4.00;;;12.40;99.90;;;;;;5036820;28;20192;-83
2022/04/24 05:08:00;;;;;;;5.43;4.97;;;12.30;99.90;;;;;;5035776;28;20230;-84
2022/04/24 05:10:26;;;;;;;5.20;4.80;;;12.50;99.90;;;;;;5037002;28;20172;-81
2022/04/24 05:12:51;;;;;;;5.38;4.97;;;12.60;99.90;;;;;;5037203;28;20164;-85
2022/04/24 05:15:17;;;;;;;6.07;4.35;;;12.60;99.90;;;;;;5036645;28;20675;-87
2022/04/24 05:17:43;;;;;;;6.53;6.03;;;12.60;99.90;;;;;;5036523;28;20164;-81
2022/04/24 05:20:11;;;;;;;5.40;4.90;;;12.70;99.90;;;;;;5048369;28;20203;-87
2022/04/24 05:22:37;;;;;;;5.90;5.38;;;12.90;99.90;;;;;;5036966;28;20179;-75
2022/04/24 05:25:05;;;;;;;5.57;5.18;;;12.90;99.90;;;;;;5042935;28;20192;-79
2022/04/24 05:27:31;;;;;;;4.82;4.43;;;12.90;99.90;;;;;;5036800;28;20179;-84
2022/04/24 05:29:58;;;;;;;4.60;4.22;;;12.90;99.90;;;;;;5035508;28;20580;-78
2022/04/24 05:32:23;;;;;;;4.97;4.57;;;13.00;99.90;;;;;;5036977;28;20211;-89
2022/04/24 05:34:49;;;;;;;5.55;4.78;;;13.20;99.90;;;;;;5036521;28;20208;-95
2022/04/24 05:37:15;;;;;;;5.10;4.70;;;13.10;99.90;;;;;;5037121;28;20171;-95
2022/04/24 05:39:40;;;;;;;5.90;5.30;;;13.20;99.90;;;;;;5037941;28;20705;-91
2022/04/24 05:42:06;;;;;;;4.88;4.47;;;13.20;99.90;;;;;;5041470;28;20171;-77
2022/04/24 05:44:32;;;;;;;5.80;5.30;;;13.50;99.90;;;;;;5044705;28;20198;-90
2022/04/24 05:46:58;;;;;;;6.25;5.25;;;13.40;99.90;;;;;;5037461;28;20184;-90
2022/04/24 05:49:25;;;;;;;4.97;4.60;;;13.40;99.90;;;;;;5039770;28;20194;-75
2022/04/24 05:51:51;;;;;;;5.95;4.65;;;13.40;99.90;;;;;;5041867;28;20179;-83
2022/04/24 05:54:16;;;;;;;4.75;4.35;;;13.50;99.90;;;;;;5037368;28;20184;-92
2022/04/24 05:56:43;;;;;;;5.90;5.40;;;13.40;99.90;;;;;;5037793;28;20199;-90
2022/04/24 05:59:09;;;;;;;5.75;5.25;;;13.20;99.90;;;;;;5037468;28;20245;-92
2022/04/24 06:01:35;;;;;;;5.45;4.97;;;13.00;99.90;;;;;;5037112;28;20239;-95
2022/04/24 06:04:00;;;;;;;5.57;4.85;;;13.00;99.90;;;;;;5040532;28;20283;-78
2022/04/24 06:06:29;;;;;;;5.88;5.38;;;13.00;99.90;;;;;;5038448;28;20164;-93
2022/04/24 06:08:54;;;;;;;6.50;6.00;;;13.00;99.90;;;;;;5043366;28;20183;-82
2022/04/24 06:11:20;;;;;;;6.25;5.65;;;12.90;99.90;;;;;;5038349;28;20175;-79
2022/04/24 06:13:46;;;;;;;5.97;5.47;;;12.70;99.90;;;;;;5036245;28;20188;-82
2022/04/24 06:16:13;;;;;;;9.00;6.20;;;12.70;99.90;;;;;;5036214;28;20164;-82
2022/04/24 06:18:39;;;;;;;7.90;6.32;;;12.60;99.90;;;;;;5036575;28;20258;-86
2022/04/24 06:21:04;;;;;;;6.60;6.10;;;12.60;99.90;;;;;;5035408;28;20211;-79
2022/04/24 06:23:31;;;;;;;6.50;5.93;;;12.70;99.90;;;;;;5035850;28;20164;-78
2022/04/24 06:25:58;;;;;;;5.85;5.35;;;12.70;99.90;;;;;;5035536;28;20539;-87
2022/04/24 06:28:25;;;;;;;6.25;5.75;;;12.60;99.90;;;;;;5035558;28;20317;-74
2022/04/24 06:30:51;;;;;;;6.03;5.53;;;12.70;99.90;;;;;;5036441;28;20198;-83
2022/04/24 06:33:17;;;;;;;6.07;5.55;;;12.80;99.90;;;;;;5036366;28;20239;-80
2022/04/24 06:35:45;;;;;;;7.03;5.55;;;13.00;99.90;;;;;;5035115;28;20725;-86
2022/04/24 06:38:11;;;;;;;6.72;6.13;;;13.00;99.90;;;;;;5035330;28;20632;-78
2022/04/24 06:40:37;;;;;;;7.35;6.63;;;13.10;99.90;;;;;;5035444;28;20209;-83
2022/04/24 06:43:05;;;;;;;6.90;6.32;;;13.10;99.90;;;;;;5034007;28;20183;-83
2022/04/24 06:45:38;;;;;;;6.75;6.25;;;13.10;99.90;;;;;;5036332;28;20200;-76
2022/04/24 06:48:12;;;;;;;6.32;5.35;;;13.10;99.90;;;;;;5035524;28;20727;-75
2022/04/24 06:50:39;;;;;;;12.20;5.68;;;13.20;99.90;;;;;;5034969;28;20178;-78
2022/04/24 06:53:10;;;;;;;7.55;6.82;;;13.30;99.90;;;;;;5034511;28;20624;-84
2022/04/24 06:55:42;;;;;;;7.07;6.47;;;13.30;99.90;;;;;;5034533;28;20195;-80
2022/04/24 06:58:09;;;;;;;8.82;6.57;;;13.10;99.90;;;;;;5034608;28;20172;-76
2022/04/24 07:00:37;;;;;;;7.88;7.28;;;13.00;99.90;;;;;;5034263;28;20195;-81
2022/04/24 07:03:10;;;;;;;7.60;7.00;;;13.30;99.90;;;;;;5049904;28;20210;-86
2022/04/24 07:05:36;;;;;;;14.65;7.38;;;13.30;99.90;;;;;;5038726;28;20188;-78
2022/04/24 07:08:03;;;;;;;8.50;7.55;;;13.20;99.90;;;;;;5044320;28;20176;-78
2022/04/24 07:10:29;;;;;;;7.35;6.75;;;13.30;99.90;;;;;;5057839;28;20171;-81
2022/04/24 07:12:55;;;;;;;7.45;6.82;;;13.40;99.90;;;;;;5043362;28;20168;-81
2022/04/24 07:15:23;;;;;;;9.80;7.57;;;13.40;99.90;;;;;;5058687;28;20198;-83
2022/04/24 07:17:51;;;;;;;7.80;7.20;;;13.30;99.90;;;;;;5058683;28;20183;-85
2022/04/24 07:20:18;;;;;;;8.15;7.35;;;13.30;99.90;;;;;;5058972;28;20205;-80
2022/04/24 07:22:52;;;;;;;8.18;7.47;;;13.20;99.90;;;;;;5043767;28;20174;-80
2022/04/24 07:25:20;;;;;;;8.23;7.43;;;13.30;99.90;;;;;;5043299;28;20734;-79
2022/04/24 07:27:46;;;;;;;8.00;7.30;;;13.30;99.90;;;;;;5042917;28;20247;-79
2022/04/24 07:30:13;;;;;;;7.75;7.15;;;13.30;99.90;;;;;;5041934;28;20156;-79
2022/04/24 07:32:55;;;;;;;7.95;7.15;;;13.50;99.90;;;;;;5041865;28;20313;-79
2022/04/24 07:35:21;;;;;;;7.63;6.88;;;13.60;99.90;;;;;;5057292;28;20219;-79
2022/04/24 07:37:48;;;;;;;8.23;7.55;;;13.80;99.90;;;;;;5040687;28;20270;-79
2022/04/24 07:40:17;;;;;;;7.22;6.63;;;13.80;99.90;;;;;;5036534;28;20286;-79
2022/04/24 07:42:52;;;;;;;12.45;6.95;;;14.00;99.90;;;;;;5055008;28;20164;-79
2022/04/24 07:45:20;;;;;;;12.15;7.50;;;14.10;99.90;;;;;;5039202;28;20308;-86
2022/04/24 07:47:48;;;;;;;9.52;7.70;;;14.30;99.90;;;;;;5036867;28;20164;-80
2022/04/24 07:50:15;;;;;;;8.15;7.35;;;14.30;99.90;;;;;;5058463;28;20558;-79
2022/04/24 07:52:41;;;;;;;8.50;7.25;;;14.30;99.90;;;;;;5047936;28;20705;-78
2022/04/24 07:55:09;;;;;;;8.93;7.45;;;14.10;99.90;;;;;;5032861;28;20188;-77
2022/04/24 07:57:35;;;;;;;8.13;6.97;;;14.00;99.90;;;;;;5035417;28;20190;-80
2022/04/24 08:00:02;;;;;;;9.95;7.95;;;13.90;99.90;;;;;;5038983;28;20711;-82
2022/04/24 08:02:28;;;;;;;8.35;7.43;;;13.90;99.90;;;;;;5040177;28;20168;-79
2022/04/24 08:04:54;;;;;;;8.05;7.32;;;14.10;99.90;;;;;;5028373;28;20208;-79
2022/04/24 08:07:22;;;;;;;8.40;7.15;;;14.20;99.90;;;;;;5023792;28;20255;-79
2022/04/24 08:09:51;;;;;;;9.38;7.40;;;14.40;99.90;;;;;;5041058;28;20567;-80
2022/04/24 08:12:18;;;;;;;6.93;6.32;;;14.60;99.90;;;;;;5023520;28;20192;-78
2022/04/24 08:14:53;;;;;;;7.93;7.13;;;14.60;99.90;;;;;;5022181;28;20196;-79
2022/04/24 08:17:20;;;;;;;13.85;7.35;;;14.60;99.90;;;;;;5022852;28;20176;-79
2022/04/24 08:19:47;;;;;;;9.15;7.97;;;14.60;99.90;;;;;;5037660;28;20180;-79
2022/04/24 08:22:15;;;;;;;8.82;7.00;;;14.70;99.90;;;;;;5037477;28;20259;-79
2022/04/24 08:24:41;;;;;;;9.27;7.38;;;14.90;99.90;;;;;;5038872;28;20244;-80
2022/04/24 08:27:08;;;;;;;8.90;6.82;;;15.00;99.90;;;;;;5056892;28;20200;-79
2022/04/24 08:29:33;;;;;;;7.15;6.65;;;15.30;99.90;;;;;;5056065;28;20226;-80
2022/04/24 08:31:59;;;;;;;10.07;8.18;;;15.30;99.90;;;;;;5040867;28;20168;-85
2022/04/24 08:34:25;;;;;;;6.97;6.47;;;15.30;99.90;;;;;;5024791;28;20196;-79
2022/04/24 08:36:50;;;;;;;7.93;7.15;;;15.30;99.90;;;;;;5021271;28;20172;-79
2022/04/24 08:39:17;;;;;;;6.88;6.32;;;15.20;99.90;;;;;;5035872;28;20176;-79
2022/04/24 08:41:44;;;;;;;8.60;7.00;;;15.20;99.90;;;;;;5022509;28;20327;-79
2022/04/24 08:44:10;;;;;;;8.40;7.70;;;15.20;99.90;;;;;;5040188;28;20195;-81
2022/04/24 08:46:40;;;;;;;7.90;6.72;;;15.20;99.90;;;;;;5055420;28;20578;-82
2022/04/24 08:49:08;;;;;;;7.40;6.70;;;15.40;99.90;;;;;;5037950;28;20608;-82
2022/04/24 08:51:38;;;;;;;7.50;6.80;;;15.60;99.90;;;;;;5039318;28;20168;-80
2022/04/24 08:54:03;;;;;;;12.13;7.32;;;15.80;99.90;;;;;;5034904;28;20197;-81
2022/04/24 08:56:31;;;;;;;9.57;7.45;;;15.90;99.90;;;;;;5019713;28;20172;-79
2022/04/24 08:58:56;;;;;;;10.07;7.07;;;15.90;99.90;;;;;;5033380;28;20199;-80
2022/04/24 09:01:22;;;;;;;12.73;7.35;;;16.00;99.90;;;;;;5034025;28;20220;-82
2022/04/24 09:03:48;;;;;;;8.38;7.57;;;15.80;99.90;;;;;;5017180;28;20169;-79
2022/04/24 09:06:23;;;;;;;10.98;7.72;;;15.70;99.90;;;;;;5018589;28;20169;-79
2022/04/24 09:08:49;;;;;;;10.80;6.60;;;15.80;99.90;;;;;;5017193;28;20202;-79
2022/04/24 09:11:17;;;;;;;7.38;6.68;;;16.00;99.90;;;;;;5017236;28;20165;-78
2022/04/24 09:16:36;;;;;;;11.52;6.47;;;16.10;99.90;;;;;;5018674;28;20179;-78
2022/04/24 09:19:03;;;;;;;8.02;7.22;;;16.00;99.90;;;;;;5016517;28;20598;-82
2022/04/24 09:21:29;;;;;;;10.70;7.82;;;16.00;99.90;;;;;;5033598;28;20228;-80
2022/04/24 09:24:00;;;;;;;8.35;7.57;;;16.00;99.90;;;;;;5037729;28;20196;-80
2022/04/24 09:26:26;;;;;;;7.72;7.05;;;16.10;99.90;;;;;;5015810;28;20165;-79
2022/04/24 09:28:53;;;;;;;8.13;7.18;;;16.20;99.90;;;;;;5020467;28;20486;-79
2022/04/24 09:31:19;;;;;;;7.88;7.05;;;16.40;99.90;;;;;;5017153;28;20168;-79
2022/04/24 09:33:44;;;;;;;8.88;7.47;;;16.40;99.90;;;;;;5031952;28;20575;-81
2022/04/24 09:36:12;;;;;;;9.52;7.22;;;16.50;99.90;;;;;;5037210;28;20180;-78
2022/04/24 09:38:45;;;;;;;16.80;7.68;;;16.50;99.90;;;;;;5042144;28;20156;-84
2022/04/24 09:41:19;;;;;;;6.68;6.07;;;16.70;99.90;;;;;;5039344;28;20207;-84
2022/04/24 09:43:45;;;;;;;11.10;7.28;;;16.70;99.90;;;;;;5034060;28;20159;-79
2022/04/24 09:46:11;;;;;;;7.68;6.97;;;16.80;99.90;;;;;;5049659;28;20171;-81
2022/04/24 09:48:37;;;;;;;8.07;7.30;;;16.80;99.90;;;;;;5033986;28;20175;-79
2022/04/24 09:51:03;;;;;;;8.52;7.03;;;16.80;99.90;;;;;;5034864;28;20218;-79
2022/04/24 09:53:30;;;;;;;8.57;6.68;;;17.00;99.90;;;;;;5033709;28;20172;-78
2022/04/24 09:55:59;;;;;;;8.35;6.93;;;16.90;99.90;;;;;;5035115;28;20702;-77
2022/04/24 09:58:25;;;;;;;8.00;6.85;;;16.80;99.90;;;;;;5035061;28;20165;-76
2022/04/24 10:00:51;;;;;;;8.10;6.93;;;16.90;99.90;;;;;;5034485;28;20212;-77
2022/04/24 10:03:20;;;;;;;7.60;7.05;;;17.00;99.90;;;;;;5034960;28;20195;-77
2022/04/24 10:05:47;;;;;;;7.95;7.35;;;16.80;99.90;;;;;;5034664;28;20192;-77
2022/04/24 10:08:14;;;;;;;9.35;7.63;;;16.80;99.90;;;;;;5033853;28;20191;-77
2022/04/24 10:10:40;;;;;;;7.90;6.85;;;16.80;99.90;;;;;;5034642;28;20243;-76
2022/04/24 10:13:11;;;;;;;7.10;6.50;;;16.90;99.90;;;;;;5034588;28;20563;-77
2022/04/24 10:15:46;;;;;;;7.50;6.40;;;17.20;99.90;;;;;;5034712;28;20187;-76
2022/04/24 10:18:18;;;;;;;8.75;6.80;;;17.40;99.90;;;;;;5033564;28;20183;-77
2022/04/24 10:21:02;;;;;;;9.05;6.75;;;17.30;99.90;;;;;;5034375;28;20298;-76
2022/04/24 10:23:36;;;;;;;15.32;6.68;;;17.40;99.90;;;;;;5034707;28;20164;-84
2022/04/24 10:26:03;;;;;;;6.90;6.35;;;17.30;99.90;;;;;;5035070;28;20594;-76
2022/04/24 10:28:39;;;;;;;12.05;6.82;;;17.30;99.90;;;;;;5034960;28;20743;-83
2022/04/24 10:31:06;;;;;;;6.78;6.22;;;17.40;99.90;;;;;;5034432;28;20700;-79
2022/04/24 10:33:34;;;;;;;6.95;6.35;;;17.60;99.90;;;;;;5034402;28;20164;-79
2022/04/24 10:36:04;;;;;;;6.50;5.90;;;17.50;99.90;;;;;;5033399;28;20219;-82
2022/04/24 10:38:32;;;;;;;9.63;6.57;;;17.80;99.90;;;;;;5034487;28;20671;-78
2022/04/24 10:41:06;;;;;;;7.32;6.63;;;17.90;99.90;;;;;;5033794;28;20219;-79
2022/04/24 10:43:39;;;;;;;6.55;5.95;;;18.10;99.90;;;;;;5034325;28;20566;-79
2022/04/24 10:46:27;;;;;;;9.73;5.15;;;18.00;99.90;;;;;;5037541;28;20168;-84
2022/04/24 10:48:54;;;;;;;5.88;5.20;;;18.00;99.90;;;;;;5034244;28;20167;-81
2022/04/24 10:51:32;;;;;;;11.55;5.50;;;18.00;99.90;;;;;;5032993;28;20226;-82
2022/04/24 10:54:04;;;;;;;6.30;5.80;;;18.00;99.90;;;;;;5032578;28;20191;-78
2022/04/24 10:56:31;;;;;;;6.53;5.65;;;18.10;99.90;;;;;;5037948;28;20172;-77
2022/04/24 10:59:10;;;;;;;16.75;6.55;;;18.10;99.90;;;;;;5039591;28;20180;-81
2022/04/24 11:01:38;;;;;;;9.52;6.10;;;18.20;99.90;;;;;;5042026;28;20672;-80
2022/04/24 11:04:10;;;;;;;7.25;5.65;;;17.90;99.90;;;;;;5041272;28;20280;-77
2022/04/24 11:06:37;;;;;;;5.40;4.82;;;18.10;99.90;;;;;;5039118;28;20203;-83
2022/04/24 11:09:13;;;;;;;10.50;5.63;;;18.30;99.90;;;;;;5039051;28;20333;-77
2022/04/24 11:12:02;;;;;;;13.75;5.55;;;18.60;99.90;;;;;;5040087;28;20160;-77
2022/04/24 11:14:29;;;;;;;6.22;5.55;;;18.50;99.90;;;;;;5039327;28;20219;-78
2022/04/24 11:17:02;;;;;;;16.20;6.10;;;18.50;99.90;;;;;;5037292;28;20643;-76
2022/04/24 11:19:35;;;;;;;6.45;5.70;;;18.50;99.90;;;;;;5040577;28;20164;-81
2022/04/24 11:22:12;;;;;;;6.82;5.65;;;18.50;99.90;;;;;;5039305;28;20733;-81
2022/04/24 11:24:40;;;;;;;10.82;6.45;;;18.40;99.90;;;;;;5021509;28;20199;-77
2022/04/24 11:27:11;;;;;;;5.85;5.35;;;18.60;99.90;;;;;;5039109;28;20229;-87
2022/04/24 11:29:37;;;;;;;8.02;6.15;;;18.70;99.90;;;;;;5041529;28;20164;-77
2022/04/24 11:32:13;;;;;;;12.82;5.88;;;18.70;99.90;;;;;;5040330;28;20636;-78
2022/04/24 11:34:39;;;;;;;5.45;4.95;;;18.60;99.90;;;;;;5041357;28;20195;-78
2022/04/24 11:37:05;;;;;;;9.50;5.75;;;18.60;99.90;;;;;;5042308;28;20175;-81
2022/04/24 11:39:32;;;;;;;7.30;5.65;;;18.80;99.90;;;;;;5041040;28;20179;-78
2022/04/24 11:42:08;;;;;;;5.85;5.25;;;18.70;99.90;;;;;;5041298;28;20544;-79
2022/04/24 11:50:17;;;;;;;7.65;4.78;;;18.80;99.00;;;;;;5042406;28;20190;-77
2022/04/24 11:52:46;;;;;;;4.55;4.15;;;18.90;98.70;;;;;;5040043;28;20237;-78
2022/04/24 11:55:13;;;;;;;6.03;4.55;;;19.00;98.30;;;;;;5033843;28;20245;-78
2022/04/24 11:57:40;;;;;;;5.20;4.70;;;18.90;98.70;;;;;;5039031;28;20175;-80
2022/04/24 12:00:14;;;;;;;4.80;4.35;;;18.90;99.00;;;;;;5041881;28;20196;-78
2022/04/24 12:02:43;;;;;;;7.43;4.22;;;19.10;98.20;;;;;;5046058;28;20159;-78
2022/04/24 12:05:09;;;;;;;12.57;3.97;;;19.10;97.30;;;;;;5037615;28;20195;-77
2022/04/24 12:07:36;;;;;;;5.18;4.13;;;18.90;97.20;;;;;;5035069;28;20168;-78
2022/04/24 12:10:10;;;;;;;9.07;3.75;;;18.90;96.50;;;;;;5035633;28;20168;-78
2022/04/24 12:12:50;;;;;;;3.75;3.20;;;19.00;95.90;;;;;;5036156;28;20167;-78
2022/04/24 12:15:19;;;;;;;4.57;4.28;;;19.10;96.40;;;;;;5039140;28;20268;-78
2022/04/24 12:18:05;;;;;;;5.55;3.88;;;19.30;96.30;;;;;;5038945;28;20537;-78
2022/04/24 12:20:44;;;;;;;4.53;4.13;;;19.20;96.70;;;;;;5037282;28;20281;-78
2022/04/24 12:23:11;;;;;;;4.90;3.75;;;19.00;95.90;;;;;;5036690;28;20171;-78
2022/04/24 12:25:49;;;;;;;5.80;3.60;;;18.90;96.10;;;;;;5037166;28;20281;-79
2022/04/24 12:28:41;;;;;;;6.28;3.50;;;19.10;96.20;;;;;;5039667;28;20176;-78
2022/04/24 12:31:23;;;;;;;5.53;3.47;;;19.40;96.00;;;;;;5038112;28;20171;-78
2022/04/24 12:33:52;;;;;;;4.32;3.90;;;19.70;95.40;;;;;;5044090;28;20303;-78
2022/04/24 12:36:20;;;;;;;7.85;3.47;;;19.90;95.00;;;;;;5042993;28;20211;-78
2022/04/24 12:39:08;;;;;;;12.82;3.83;;;19.80;94.20;;;;;;5045370;28;20156;-78
2022/04/24 12:41:53;;;;;;;8.73;4.00;;;19.40;94.80;;;;;;5043772;28;20279;-77
2022/04/24 12:44:19;;;;;;;18.52;4.22;;;19.40;94.90;;;;;;5040880;28;20192;-78
2022/04/24 12:46:46;;;;;;;5.00;3.97;;;19.60;95.10;;;;;;5041315;28;20167;-78
2022/04/24 12:49:14;;;;;;;4.65;4.25;;;19.60;94.40;;;;;;5041335;28;20172;-78
2022/04/24 12:51:40;;;;;;;4.30;3.90;;;19.60;94.30;;;;;;5041261;28;20171;-78
2022/04/24 12:54:06;;;;;;;6.75;4.70;;;19.50;94.10;;;;;;5033574;28;20207;-79
2022/04/24 12:56:35;;;;;;;4.13;3.83;;;19.40;93.60;;;;;;5036861;28;20171;-78